Time;durP1;ratioP1;P1;durP2;ratioP2;P2;SDS_P1;SDS_P2;PMS_P1;PMS_P2;Temp;Humidity;BMP_temperature;BMP_pressure;BME280_temperature;BME280_humidity;BME280_pressure;Samples;Min_cycle;Max_cycle;Signal;HPM_P1;HPM_P2
2022/02/19 00:02:09;;;;;;;3.10;1.00;;;6.90;99.90;;;;;;4996622;28;20053;-79
2022/02/19 00:04:34;;;;;;;2.73;1.10;;;6.90;99.90;;;;;;5010513;28;20069;-78
2022/02/19 00:07:00;;;;;;;2.40;1.10;;;6.90;99.90;;;;;;4993346;28;20030;-79
2022/02/19 00:09:25;;;;;;;2.50;1.00;;;6.90;99.90;;;;;;5010284;28;20036;-79
2022/02/19 00:11:51;;;;;;;1.40;0.90;;;6.90;99.90;;;;;;5010885;28;20029;-79
2022/02/19 00:14:17;;;;;;;4.63;1.00;;;6.90;99.90;;;;;;5010789;28;20054;-79
2022/02/19 00:16:43;;;;;;;4.00;1.10;;;6.90;99.90;;;;;;5010652;28;20394;-79
2022/02/19 00:19:08;;;;;;;2.27;1.00;;;6.80;99.90;;;;;;5010462;28;20029;-79
2022/02/19 00:21:34;;;;;;;2.10;1.00;;;6.70;99.90;;;;;;5010593;28;20044;-79
2022/02/19 00:23:59;;;;;;;4.60;1.00;;;6.80;99.90;;;;;;5010173;28;20033;-79
2022/02/19 00:26:25;;;;;;;2.63;0.90;;;6.70;99.90;;;;;;5010679;28;20080;-79
2022/02/19 00:28:51;;;;;;;3.23;1.10;;;6.80;99.90;;;;;;5010442;28;20049;-79
2022/02/19 00:31:16;;;;;;;3.73;1.10;;;6.70;99.90;;;;;;5010322;28;20439;-79
2022/02/19 00:33:42;;;;;;;4.93;1.30;;;6.60;99.90;;;;;;5010302;28;20034;-79
2022/02/19 00:36:08;;;;;;;5.93;1.13;;;6.60;99.90;;;;;;5010158;28;20022;-79
2022/02/19 00:38:33;;;;;;;2.13;0.90;;;6.70;99.90;;;;;;5010109;28;20048;-79
2022/02/19 00:41:00;;;;;;;3.17;1.13;;;6.60;99.90;;;;;;4992490;28;20076;-79
2022/02/19 00:43:26;;;;;;;3.83;1.27;;;6.70;99.90;;;;;;5010207;28;20028;-79
2022/02/19 00:45:52;;;;;;;3.93;1.20;;;6.60;99.90;;;;;;5008323;28;20037;-79
2022/02/19 00:48:17;;;;;;;2.70;1.00;;;6.50;99.90;;;;;;5002104;28;20564;-79
2022/02/19 00:50:43;;;;;;;2.30;1.10;;;6.40;99.90;;;;;;5010239;28;20103;-79
2022/02/19 00:53:09;;;;;;;2.77;0.90;;;6.40;99.90;;;;;;5010261;28;20491;-79
2022/02/19 00:55:34;;;;;;;5.83;1.33;;;6.30;99.90;;;;;;5010602;28;20042;-79
2022/02/19 00:58:00;;;;;;;1.83;1.03;;;6.30;99.90;;;;;;5010154;28;20417;-79
2022/02/19 01:00:25;;;;;;;2.57;0.90;;;6.30;99.90;;;;;;4992643;28;20077;-79
2022/02/19 01:02:51;;;;;;;3.27;1.10;;;6.20;99.90;;;;;;5010311;28;20043;-78
2022/02/19 01:05:17;;;;;;;5.47;0.90;;;6.20;99.90;;;;;;5010097;28;20470;-79
2022/02/19 01:07:42;;;;;;;2.27;0.93;;;6.20;99.90;;;;;;5009764;28;20590;-78
2022/02/19 01:10:08;;;;;;;4.67;1.10;;;6.10;99.90;;;;;;5010232;28;20139;-79
2022/02/19 01:12:35;;;;;;;3.13;0.90;;;6.00;99.90;;;;;;5010125;28;20029;-78
2022/02/19 01:15:02;;;;;;;4.13;1.00;;;6.00;99.90;;;;;;5010001;28;20080;-78
2022/02/19 01:17:27;;;;;;;2.03;0.87;;;6.30;99.90;;;;;;4993541;28;20080;-78
2022/02/19 01:19:53;;;;;;;3.03;1.10;;;6.30;99.90;;;;;;4990473;28;20487;-78
2022/02/19 01:22:18;;;;;;;5.57;1.43;;;6.30;99.90;;;;;;5008546;28;20061;-78
2022/02/19 01:24:44;;;;;;;2.40;1.20;;;6.40;99.90;;;;;;4992392;28;20049;-78
2022/02/19 01:27:09;;;;;;;3.23;1.13;;;6.40;99.90;;;;;;5010079;28;20030;-78
2022/02/19 01:29:35;;;;;;;4.27;1.33;;;6.30;99.90;;;;;;4992145;28;20037;-78
2022/02/19 01:32:01;;;;;;;3.50;1.10;;;6.40;99.90;;;;;;5010063;28;20026;-79
2022/02/19 01:34:26;;;;;;;4.23;1.00;;;6.40;99.90;;;;;;5009826;28;20548;-78
2022/02/19 01:36:52;;;;;;;3.07;1.00;;;6.40;99.90;;;;;;5009923;28;20030;-78
2022/02/19 01:39:17;;;;;;;2.20;0.80;;;6.40;99.90;;;;;;5009561;28;20136;-77
2022/02/19 01:41:43;;;;;;;2.50;1.00;;;6.50;99.90;;;;;;5010055;28;20033;-79
2022/02/19 01:44:11;;;;;;;3.93;1.00;;;6.50;99.90;;;;;;5009625;28;20491;-78
2022/02/19 01:46:38;;;;;;;5.13;1.50;;;6.60;99.90;;;;;;4997814;28;20394;-78
2022/02/19 01:49:05;;;;;;;3.97;1.07;;;6.60;99.90;;;;;;4991912;28;20077;-78
2022/02/19 01:51:35;;;;;;;2.00;1.17;;;6.50;99.90;;;;;;4990191;28;20030;-79
2022/02/19 01:54:09;;;;;;;2.90;1.20;;;6.50;99.90;;;;;;4993439;28;20030;-79
2022/02/19 01:56:35;;;;;;;1.50;0.87;;;6.50;99.90;;;;;;4993852;28;20042;-79
2022/02/19 01:59:03;;;;;;;3.33;1.00;;;6.50;99.90;;;;;;4993421;28;20034;-79
2022/02/19 02:01:29;;;;;;;2.30;0.90;;;6.50;99.90;;;;;;4993710;28;20088;-79
2022/02/19 02:03:54;;;;;;;2.10;1.10;;;6.40;99.90;;;;;;5003985;28;20041;-79
2022/02/19 02:06:23;;;;;;;3.50;1.03;;;6.40;99.90;;;;;;5013136;28;20073;-79
2022/02/19 02:08:48;;;;;;;2.13;1.00;;;6.40;99.90;;;;;;4995250;28;20030;-79
2022/02/19 02:11:15;;;;;;;4.27;1.30;;;6.40;99.90;;;;;;5012995;28;20041;-79
2022/02/19 02:13:40;;;;;;;3.43;1.20;;;6.40;99.90;;;;;;5012850;28;20422;-78
2022/02/19 02:16:06;;;;;;;2.20;0.90;;;6.30;99.90;;;;;;4995155;28;20034;-79
2022/02/19 02:18:32;;;;;;;2.60;1.00;;;6.30;99.90;;;;;;4995230;28;20793;-78
2022/02/19 02:20:58;;;;;;;3.63;1.00;;;6.20;99.90;;;;;;4995213;28;20082;-78
2022/02/19 02:23:24;;;;;;;5.63;1.13;;;6.20;99.90;;;;;;5012339;28;20095;-79
2022/02/19 02:25:52;;;;;;;5.40;1.10;;;6.20;99.90;;;;;;5012826;28;20477;-79
2022/02/19 02:28:19;;;;;;;3.30;1.20;;;6.20;99.90;;;;;;5012525;28;20038;-78
2022/02/19 02:30:45;;;;;;;3.80;1.63;;;6.20;99.90;;;;;;5012380;28;20033;-79
2022/02/19 02:33:14;;;;;;;3.77;1.10;;;6.20;99.90;;;;;;5012365;28;20087;-78
2022/02/19 02:35:40;;;;;;;1.80;1.20;;;6.20;99.90;;;;;;5012579;28;20037;-79
2022/02/19 02:38:08;;;;;;;2.77;1.07;;;6.20;99.90;;;;;;5012372;28;20079;-78
2022/02/19 02:40:34;;;;;;;3.23;1.30;;;6.20;99.90;;;;;;5012497;28;20054;-79
2022/02/19 02:43:00;;;;;;;3.27;1.20;;;6.10;99.90;;;;;;4994713;28;20037;-79
2022/02/19 02:45:26;;;;;;;6.57;1.90;;;6.20;99.90;;;;;;5009028;28;20034;-79
2022/02/19 02:47:51;;;;;;;2.17;1.17;;;6.20;99.90;;;;;;5001423;28;20073;-78
2022/02/19 02:50:17;;;;;;;6.67;1.30;;;6.20;99.90;;;;;;4992647;28;20077;-78
2022/02/19 02:52:43;;;;;;;4.10;1.10;;;6.20;99.90;;;;;;5000980;28;20048;-80
2022/02/19 02:55:10;;;;;;;2.40;1.10;;;6.10;99.90;;;;;;5012548;28;20033;-79
2022/02/19 02:57:37;;;;;;;3.20;1.00;;;6.20;99.90;;;;;;5011875;28;20033;-79
2022/02/19 03:00:06;;;;;;;4.20;1.00;;;6.20;99.90;;;;;;5012002;28;20026;-79
2022/02/19 03:02:34;;;;;;;4.07;1.10;;;6.10;99.90;;;;;;5011799;28;20343;-79
2022/02/19 03:05:03;;;;;;;5.53;1.10;;;6.10;99.90;;;;;;5010533;28;20112;-80
2022/02/19 03:07:30;;;;;;;3.53;1.00;;;6.00;99.90;;;;;;5011952;28;20394;-79
2022/02/19 03:09:56;;;;;;;4.17;1.10;;;6.00;99.90;;;;;;5011756;28;20491;-80
2022/02/19 03:12:22;;;;;;;2.10;0.90;;;5.80;99.90;;;;;;5012079;28;20487;-80
2022/02/19 03:14:47;;;;;;;3.37;0.90;;;5.50;99.90;;;;;;5011826;28;20028;-80
2022/02/19 03:17:13;;;;;;;2.60;0.87;;;5.20;99.90;;;;;;4993850;28;20034;-80
2022/02/19 03:19:38;;;;;;;1.50;0.80;;;5.20;99.90;;;;;;5011386;28;20034;-80
2022/02/19 03:22:04;;;;;;;1.63;1.00;;;5.00;99.90;;;;;;5011581;28;20053;-80
2022/02/19 03:24:30;;;;;;;3.03;1.13;;;5.10;99.90;;;;;;5011543;28;20119;-80
2022/02/19 03:26:58;;;;;;;1.23;0.77;;;5.10;99.90;;;;;;5011628;28;20048;-80
2022/02/19 03:29:25;;;;;;;2.37;0.80;;;5.00;99.90;;;;;;5011526;28;20029;-80
2022/02/19 03:31:50;;;;;;;2.00;0.80;;;5.00;99.90;;;;;;5011533;28;20037;-80
2022/02/19 03:34:16;;;;;;;1.93;0.90;;;5.00;99.90;;;;;;5011390;28;20099;-80
2022/02/19 03:36:42;;;;;;;2.40;0.90;;;5.10;99.90;;;;;;4994007;28;20466;-80
2022/02/19 03:39:08;;;;;;;2.57;0.80;;;5.10;99.90;;;;;;5011064;28;20491;-80
2022/02/19 03:41:35;;;;;;;3.00;1.30;;;4.90;99.90;;;;;;5011553;28;20108;-80
2022/02/19 03:44:01;;;;;;;1.33;0.70;;;4.80;99.90;;;;;;5011147;28;20486;-80
2022/02/19 03:46:27;;;;;;;3.33;1.03;;;4.70;99.90;;;;;;5004092;28;20041;-80
2022/02/19 03:48:52;;;;;;;3.77;0.90;;;4.70;99.90;;;;;;5007725;28;20092;-80
2022/02/19 03:51:18;;;;;;;3.73;0.83;;;4.50;99.90;;;;;;5010157;28;20030;-80
2022/02/19 03:53:44;;;;;;;3.10;0.90;;;4.40;99.90;;;;;;5011079;28;20084;-80
2022/02/19 03:56:09;;;;;;;2.27;0.80;;;4.30;99.90;;;;;;5009913;28;20467;-80
2022/02/19 03:58:35;;;;;;;2.33;0.70;;;4.20;99.90;;;;;;5010913;28;20468;-80
2022/02/19 04:01:04;;;;;;;1.67;0.87;;;4.10;99.90;;;;;;5010975;28;20474;-80
2022/02/19 04:03:29;;;;;;;4.03;0.90;;;4.00;99.90;;;;;;5010856;28;20113;-80
2022/02/19 04:05:56;;;;;;;3.10;0.70;;;3.90;99.90;;;;;;5011055;28;20454;-80
2022/02/19 04:08:23;;;;;;;2.00;0.80;;;3.90;99.90;;;;;;5010699;28;20053;-80
2022/02/19 04:10:48;;;;;;;3.03;0.80;;;3.90;99.90;;;;;;5010885;28;20475;-80
2022/02/19 04:13:14;;;;;;;3.57;1.10;;;3.80;99.90;;;;;;5010464;28;20084;-80
2022/02/19 04:15:40;;;;;;;2.93;0.80;;;3.90;99.90;;;;;;4992857;28;20022;-80
2022/02/19 04:18:05;;;;;;;1.30;0.70;;;3.90;99.90;;;;;;5010498;28;20033;-80
2022/02/19 04:20:31;;;;;;;1.47;0.67;;;3.80;99.90;;;;;;4993324;28;20061;-80
2022/02/19 04:22:56;;;;;;;4.10;1.17;;;3.80;99.90;;;;;;4993033;28;20121;-80
2022/02/19 04:25:25;;;;;;;1.17;0.80;;;3.70;99.90;;;;;;5010639;28;20029;-80
2022/02/19 04:27:53;;;;;;;2.50;0.93;;;3.70;99.90;;;;;;5010513;28;20041;-80
2022/02/19 04:30:19;;;;;;;1.17;1.00;;;3.70;99.90;;;;;;5010429;28;20030;-80
2022/02/19 04:32:45;;;;;;;2.60;1.40;;;3.80;99.90;;;;;;5010668;28;20040;-80
2022/02/19 04:35:11;;;;;;;1.93;1.00;;;3.90;99.90;;;;;;5010689;28;20030;-80
2022/02/19 04:37:37;;;;;;;3.13;1.00;;;4.00;99.90;;;;;;4992706;28;20030;-80
2022/02/19 04:40:05;;;;;;;2.20;0.93;;;3.90;99.90;;;;;;5010405;28;20128;-80
2022/02/19 04:42:31;;;;;;;3.87;1.00;;;4.00;99.90;;;;;;4992539;28;20030;-80
2022/02/19 04:44:56;;;;;;;2.57;1.10;;;4.00;99.90;;;;;;5008973;28;20041;-80
2022/02/19 04:47:22;;;;;;;3.60;1.00;;;4.00;99.90;;;;;;5001545;28;20050;-80
2022/02/19 04:49:48;;;;;;;4.63;1.27;;;4.00;99.90;;;;;;4990523;28;20030;-80
2022/02/19 04:52:14;;;;;;;4.50;1.10;;;4.10;99.90;;;;;;4989426;28;20042;-80
2022/02/19 04:54:39;;;;;;;1.53;1.07;;;4.20;99.90;;;;;;4990462;28;20042;-80
2022/02/19 04:57:06;;;;;;;3.83;1.70;;;4.30;99.90;;;;;;4991217;28;20110;-80
2022/02/19 04:59:31;;;;;;;6.33;1.33;;;4.30;99.90;;;;;;4990698;28;20039;-80
2022/02/19 05:01:57;;;;;;;4.47;1.17;;;4.30;99.90;;;;;;5010289;28;20116;-79
2022/02/19 05:04:22;;;;;;;5.57;1.27;;;4.30;99.90;;;;;;5010235;28;20112;-80
2022/02/19 05:06:48;;;;;;;4.97;1.93;;;4.30;99.90;;;;;;5010276;28;20041;-79
2022/02/19 05:09:14;;;;;;;8.00;1.77;;;4.20;99.90;;;;;;5009830;28;20485;-79
2022/02/19 05:11:40;;;;;;;5.27;1.30;;;4.40;99.90;;;;;;5010419;28;20096;-79
2022/02/19 05:14:05;;;;;;;4.10;1.50;;;4.40;99.90;;;;;;5009944;28;20029;-79
2022/02/19 05:16:31;;;;;;;3.03;1.10;;;4.30;99.90;;;;;;5010278;28;20057;-78
2022/02/19 05:18:57;;;;;;;6.13;1.43;;;4.30;99.90;;;;;;5009821;28;20038;-79
2022/02/19 05:21:22;;;;;;;2.63;1.00;;;4.40;99.90;;;;;;5010140;28;20037;-78
2022/02/19 05:23:48;;;;;;;5.10;1.40;;;4.40;99.90;;;;;;5009786;28;20438;-78
2022/02/19 05:26:13;;;;;;;4.17;1.10;;;4.30;99.90;;;;;;5010125;28;20041;-78
2022/02/19 05:28:41;;;;;;;3.67;1.23;;;4.40;99.90;;;;;;5013212;28;20459;-78
2022/02/19 05:31:06;;;;;;;6.80;1.63;;;4.40;99.90;;;;;;5013791;28;20041;-79
2022/02/19 05:33:32;;;;;;;4.97;1.40;;;4.50;99.90;;;;;;5013881;28;20341;-79
2022/02/19 05:35:58;;;;;;;3.23;1.20;;;4.40;99.90;;;;;;5013119;28;20044;-79
2022/02/19 05:38:25;;;;;;;6.30;1.37;;;4.50;99.90;;;;;;5013036;28;20413;-79
2022/02/19 05:40:52;;;;;;;6.27;1.40;;;4.60;99.90;;;;;;4994336;28;20124;-79
2022/02/19 05:43:18;;;;;;;5.53;1.50;;;4.60;99.90;;;;;;5012377;28;20113;-79
2022/02/19 05:45:46;;;;;;;4.50;1.40;;;4.70;99.90;;;;;;5011241;28;20896;-79
2022/02/19 05:48:12;;;;;;;7.17;1.43;;;4.70;99.90;;;;;;4993979;28;20057;-78
2022/02/19 05:50:37;;;;;;;5.73;1.73;;;4.60;99.90;;;;;;5012513;28;20858;-78
2022/02/19 05:53:04;;;;;;;7.03;1.50;;;4.60;99.90;;;;;;5011866;28;20022;-78
2022/02/19 05:55:30;;;;;;;6.73;1.47;;;4.70;99.90;;;;;;4994490;28;20049;-78
2022/02/19 05:57:56;;;;;;;7.97;1.67;;;4.70;99.90;;;;;;5010598;28;20045;-79
2022/02/19 06:00:22;;;;;;;9.77;2.07;;;4.70;99.90;;;;;;5010489;28;20026;-79
2022/02/19 06:02:48;;;;;;;5.17;1.53;;;4.60;99.90;;;;;;5011646;28;20379;-79
2022/02/19 06:05:14;;;;;;;7.93;1.87;;;4.70;99.90;;;;;;5011993;28;20424;-79
2022/02/19 06:07:41;;;;;;;7.03;1.60;;;4.70;99.90;;;;;;5010404;28;20069;-79
2022/02/19 06:10:08;;;;;;;5.47;1.80;;;4.70;99.90;;;;;;5011727;28;20121;-79
2022/02/19 06:12:33;;;;;;;5.13;1.63;;;4.70;99.90;;;;;;5011833;28;20026;-78
2022/02/19 06:14:59;;;;;;;7.63;1.50;;;4.70;99.90;;;;;;5011695;28;20397;-78
2022/02/19 06:17:28;;;;;;;7.50;1.60;;;4.60;99.90;;;;;;5011674;28;20034;-78
2022/02/19 06:19:54;;;;;;;10.53;2.40;;;4.80;99.90;;;;;;5011622;28;20139;-79
2022/02/19 06:22:20;;;;;;;5.43;1.30;;;4.80;99.90;;;;;;5014576;28;20030;-78
2022/02/19 06:24:46;;;;;;;8.47;1.97;;;4.80;99.90;;;;;;5011485;28;20355;-78
2022/02/19 06:27:11;;;;;;;6.50;2.00;;;4.90;99.90;;;;;;5011862;28;20065;-79
2022/02/19 06:29:37;;;;;;;5.87;1.87;;;4.90;99.90;;;;;;5014312;28;20034;-82
2022/02/19 06:32:03;;;;;;;9.17;1.93;;;4.90;99.90;;;;;;5015230;28;20018;-82
2022/02/19 06:34:29;;;;;;;7.00;1.93;;;4.90;99.90;;;;;;5014776;28;20045;-81
2022/02/19 06:36:55;;;;;;;10.33;1.70;;;4.80;99.90;;;;;;5014977;28;20025;-74
2022/02/19 06:39:21;;;;;;;10.43;1.70;;;4.80;99.90;;;;;;5014415;28;20046;-73
2022/02/19 06:41:46;;;;;;;8.43;1.80;;;4.90;99.90;;;;;;5015089;28;20474;-73
2022/02/19 06:44:12;;;;;;;6.57;1.90;;;4.90;99.90;;;;;;5015096;28;20109;-73
2022/02/19 06:46:37;;;;;;;8.10;1.73;;;5.00;99.90;;;;;;5014771;28;20531;-73
2022/02/19 06:49:03;;;;;;;12.63;2.27;;;5.00;99.90;;;;;;5012970;28;20041;-73
2022/02/19 06:51:29;;;;;;;9.90;1.80;;;5.00;99.90;;;;;;5014826;28;20025;-73
2022/02/19 06:53:56;;;;;;;9.53;2.43;;;5.10;99.90;;;;;;5014892;28;20018;-74
2022/02/19 06:56:25;;;;;;;7.97;1.90;;;5.20;99.90;;;;;;5015119;28;20022;-74
2022/02/19 06:58:52;;;;;;;9.57;2.67;;;5.10;99.90;;;;;;5015044;28;20018;-74
2022/02/19 07:01:17;;;;;;;6.90;1.80;;;5.10;99.90;;;;;;5014562;28;20022;-77
2022/02/19 07:03:43;;;;;;;6.83;2.10;;;5.20;99.90;;;;;;4991989;28;20448;-77
2022/02/19 07:06:09;;;;;;;9.77;1.80;;;5.20;99.90;;;;;;5014508;28;20042;-74
2022/02/19 07:08:34;;;;;;;6.50;2.03;;;5.20;99.90;;;;;;5014501;28;20026;-74
2022/02/19 07:11:00;;;;;;;8.93;2.10;;;5.20;99.90;;;;;;5014713;28;20033;-73
2022/02/19 07:13:25;;;;;;;9.73;1.87;;;5.20;99.90;;;;;;5014707;28;20437;-73
2022/02/19 07:15:51;;;;;;;13.13;2.50;;;5.20;99.90;;;;;;5014452;28;20483;-73
2022/02/19 07:18:17;;;;;;;8.87;2.20;;;5.20;99.90;;;;;;5014872;28;20348;-73
2022/02/19 07:20:42;;;;;;;12.60;2.17;;;5.20;99.90;;;;;;5014693;28;20034;-73
2022/02/19 07:23:08;;;;;;;9.70;2.37;;;5.40;99.90;;;;;;5014802;28;20059;-73
2022/02/19 07:25:33;;;;;;;6.30;2.00;;;5.40;99.90;;;;;;5014629;28;20405;-73
2022/02/19 07:27:59;;;;;;;13.00;2.63;;;5.30;99.90;;;;;;5014060;28;20026;-73
2022/02/19 07:30:25;;;;;;;11.17;2.70;;;5.40;99.90;;;;;;5014275;28;20493;-73
2022/02/19 07:32:52;;;;;;;8.87;1.80;;;5.40;99.90;;;;;;5014045;28;20022;-73
2022/02/19 07:35:19;;;;;;;8.83;2.47;;;5.60;99.90;;;;;;4996688;28;20382;-73
2022/02/19 07:37:44;;;;;;;7.17;1.87;;;5.60;99.90;;;;;;5014341;28;20331;-73
2022/02/19 07:40:10;;;;;;;10.33;1.93;;;5.70;99.90;;;;;;5014172;28;20053;-74
2022/02/19 07:42:36;;;;;;;10.30;3.10;;;5.80;99.90;;;;;;5014317;28;20108;-73
2022/02/19 07:45:03;;;;;;;13.17;2.23;;;5.80;99.90;;;;;;5014184;28;20029;-72
2022/02/19 07:47:32;;;;;;;5.37;1.50;;;5.80;99.90;;;;;;5014060;28;20038;-73
2022/02/19 07:58:18;;;;;;;11.67;2.57;;;5.60;99.90;;;;;;5013893;28;20395;-72
2022/02/19 08:00:48;;;;;;;13.60;2.10;;;5.50;99.90;;;;;;5013685;28;20034;-73
2022/02/19 08:03:15;;;;;;;8.60;2.17;;;5.50;99.90;;;;;;5013871;28;20075;-73
2022/02/19 08:05:42;;;;;;;10.40;2.97;;;5.50;99.90;;;;;;5013770;28;20467;-72
2022/02/19 08:08:07;;;;;;;7.90;2.00;;;5.50;99.90;;;;;;5014018;28;20034;-72
2022/02/19 08:10:33;;;;;;;10.83;1.90;;;5.50;99.90;;;;;;5013668;28;20053;-73
2022/02/19 08:12:58;;;;;;;8.57;2.40;;;5.60;99.90;;;;;;5013885;28;20045;-72
2022/02/19 08:15:24;;;;;;;8.50;2.00;;;5.60;99.90;;;;;;5013803;28;20119;-73
2022/02/19 08:17:50;;;;;;;7.07;1.70;;;5.60;99.90;;;;;;5013599;28;20443;-73
2022/02/19 08:20:16;;;;;;;8.77;1.90;;;5.80;99.90;;;;;;5013992;28;20418;-73
2022/02/19 08:22:41;;;;;;;9.83;2.20;;;5.90;99.90;;;;;;5013477;28;20062;-73
2022/02/19 08:25:07;;;;;;;7.90;2.03;;;6.10;99.90;;;;;;5013612;28;20148;-73
2022/02/19 08:27:38;;;;;;;9.60;2.50;;;6.30;99.90;;;;;;5013365;28;20109;-73
2022/02/19 08:30:04;;;;;;;9.27;2.30;;;6.30;99.90;;;;;;5013495;28;20426;-73
2022/02/19 08:32:30;;;;;;;8.07;1.93;;;6.50;99.90;;;;;;5013430;28;20117;-72
2022/02/19 08:34:57;;;;;;;13.20;2.07;;;6.50;99.90;;;;;;5013376;28;20057;-73
2022/02/19 08:37:23;;;;;;;8.67;2.67;;;6.60;99.90;;;;;;5013615;28;20105;-72
2022/02/19 08:39:49;;;;;;;8.57;2.20;;;6.60;99.90;;;;;;4995735;28;20054;-73
2022/02/19 08:42:15;;;;;;;9.67;2.27;;;6.60;99.90;;;;;;4995590;28;20034;-72
2022/02/19 08:44:40;;;;;;;9.17;2.43;;;6.60;99.90;;;;;;5013623;28;20474;-73
2022/02/19 08:47:06;;;;;;;10.27;1.90;;;6.70;99.90;;;;;;4995635;28;20026;-74
2022/02/19 08:49:32;;;;;;;10.77;2.00;;;6.70;99.90;;;;;;5013208;28;20026;-77
2022/02/19 08:52:01;;;;;;;7.67;2.13;;;6.70;99.90;;;;;;5013865;28;20026;-71
2022/02/19 08:54:27;;;;;;;5.60;1.47;;;6.80;99.90;;;;;;5013911;28;20030;-71
2022/02/19 08:56:54;;;;;;;6.13;1.80;;;6.90;99.90;;;;;;5011940;28;20025;-71
2022/02/19 08:59:20;;;;;;;9.77;1.93;;;6.90;99.90;;;;;;5013345;28;20026;-72
2022/02/19 09:01:46;;;;;;;8.60;2.13;;;6.90;99.90;;;;;;5015490;28;20034;-72
2022/02/19 09:04:12;;;;;;;11.80;2.30;;;7.10;99.90;;;;;;5017218;28;20057;-72
2022/02/19 09:06:37;;;;;;;6.87;2.17;;;7.10;99.90;;;;;;5017264;28;20105;-73
2022/02/19 09:09:06;;;;;;;6.67;1.90;;;7.20;99.90;;;;;;5017440;28;20398;-73
2022/02/19 09:11:35;;;;;;;8.90;2.30;;;7.40;99.90;;;;;;5016741;28;20108;-73
2022/02/19 09:14:04;;;;;;;13.23;2.10;;;7.30;99.90;;;;;;5017165;28;20100;-73
2022/02/19 09:16:34;;;;;;;5.77;1.57;;;7.50;99.90;;;;;;5017149;28;20026;-73
2022/02/19 09:19:00;;;;;;;7.03;1.90;;;7.60;99.90;;;;;;5017100;28;20026;-73
2022/02/19 09:21:28;;;;;;;8.40;2.33;;;7.60;99.90;;;;;;5017587;28;20034;-73
2022/02/19 09:23:53;;;;;;;10.97;2.63;;;7.50;99.90;;;;;;5014322;28;20061;-75
2022/02/19 09:26:19;;;;;;;12.67;2.03;;;7.40;99.90;;;;;;5014060;28;20510;-75
2022/02/19 09:28:45;;;;;;;6.70;1.77;;;7.40;99.90;;;;;;5014998;28;20032;-74
2022/02/19 09:31:10;;;;;;;8.77;1.77;;;7.40;99.90;;;;;;5010673;28;20080;-64
2022/02/19 09:33:36;;;;;;;8.47;1.60;;;7.40;99.90;;;;;;5013028;28;20038;-74
2022/02/19 09:36:02;;;;;;;9.47;2.43;;;7.40;99.90;;;;;;4992955;28;20030;-74
2022/02/19 09:38:27;;;;;;;7.07;1.90;;;7.40;99.90;;;;;;5014755;28;20026;-74
2022/02/19 09:40:54;;;;;;;6.90;1.80;;;7.60;99.90;;;;;;5015477;28;20061;-73
2022/02/19 09:43:20;;;;;;;7.43;2.33;;;7.50;99.90;;;;;;4997716;28;20026;-73
2022/02/19 09:45:47;;;;;;;6.53;1.57;;;7.50;99.90;;;;;;5014709;28;20034;-73
2022/02/19 09:48:16;;;;;;;6.00;2.00;;;7.60;99.90;;;;;;5011795;28;20034;-73
2022/02/19 09:50:44;;;;;;;6.93;1.90;;;7.60;99.90;;;;;;5010682;28;20130;-63
2022/02/19 09:53:11;;;;;;;6.00;1.90;;;7.50;99.90;;;;;;5013399;28;20034;-73
2022/02/19 09:55:37;;;;;;;9.77;2.07;;;7.80;99.90;;;;;;5014553;28;20658;-74
2022/02/19 09:58:03;;;;;;;7.37;2.07;;;7.70;99.90;;;;;;5013171;28;20022;-83
2022/02/19 10:00:42;;;;;;;5.83;1.80;;;7.90;99.90;;;;;;5009455;28;20504;-65
2022/02/19 10:03:20;;;;;;;11.13;1.80;;;8.10;99.90;;;;;;5014667;28;20493;-83
2022/02/19 10:05:46;;;;;;;8.67;2.00;;;8.30;99.90;;;;;;5010466;28;20116;-84
2022/02/19 10:08:11;;;;;;;10.10;1.97;;;8.20;99.90;;;;;;5015478;28;20072;-84
2022/02/19 10:10:48;;;;;;;7.00;1.83;;;8.20;99.90;;;;;;5015531;28;20026;-82
2022/02/19 10:13:38;;;;;;;8.10;2.00;;;8.20;99.90;;;;;;4997215;28;20375;-82
2022/02/19 10:16:05;;;;;;;7.10;2.17;;;8.20;99.90;;;;;;5020030;28;20025;-83
2022/02/19 10:18:35;;;;;;;7.37;2.17;;;8.30;99.90;;;;;;5024347;28;20022;-83
2022/02/19 10:21:19;;;;;;;5.43;1.80;;;8.40;99.90;;;;;;5014914;28;20090;-82
2022/02/19 10:23:46;;;;;;;6.30;2.07;;;8.50;99.90;;;;;;5026475;28;20026;-83
2022/02/19 10:26:13;;;;;;;6.97;1.73;;;8.60;99.90;;;;;;5022397;28;20026;-83
2022/02/19 10:28:39;;;;;;;5.63;1.90;;;8.60;99.90;;;;;;5032720;28;20025;-83
2022/02/19 10:31:13;;;;;;;5.73;1.90;;;8.60;99.90;;;;;;5028845;28;20029;-76
2022/02/19 10:33:41;;;;;;;5.63;1.80;;;8.50;99.90;;;;;;4993802;28;20022;-83
2022/02/19 10:36:14;;;;;;;8.53;2.07;;;8.50;99.90;;;;;;5013531;28;20018;-82
2022/02/19 10:38:58;;;;;;;7.30;2.03;;;8.40;99.90;;;;;;5011114;28;20049;-64
2022/02/19 10:41:37;;;;;;;5.80;2.03;;;8.50;99.90;;;;;;5019847;28;20478;-83
2022/02/19 10:44:39;;;;;;;8.67;2.00;;;8.60;99.90;;;;;;5022285;28;20025;-83
2022/02/19 10:47:22;;;;;;;13.00;2.67;;;8.80;99.90;;;;;;4959545;28;20710;-81
2022/02/19 10:50:09;;;;;;;7.97;1.77;;;8.90;99.90;;;;;;4999798;28;20038;-82
2022/02/19 10:52:36;;;;;;;5.27;1.67;;;9.00;99.90;;;;;;5017321;28;20042;-83
2022/02/19 10:55:08;;;;;;;6.10;2.00;;;9.10;99.90;;;;;;5016142;28;20058;-83
2022/02/19 10:57:39;;;;;;;10.37;2.23;;;9.00;99.90;;;;;;5012320;28;20037;-82
2022/02/19 11:00:09;;;;;;;7.13;2.23;;;8.90;99.90;;;;;;4997096;28;20037;-83
2022/02/19 11:02:36;;;;;;;10.43;1.90;;;8.70;99.90;;;;;;4997650;28;20632;-82
2022/02/19 11:05:02;;;;;;;7.97;2.10;;;8.70;99.90;;;;;;4998692;28;20143;-82
2022/02/19 11:07:28;;;;;;;9.77;2.00;;;8.60;99.90;;;;;;5015230;28;20038;-83
2022/02/19 11:09:54;;;;;;;8.60;2.03;;;8.60;99.90;;;;;;4992885;28;20037;-77
2022/02/19 11:12:20;;;;;;;10.60;3.20;;;8.50;99.90;;;;;;5008209;28;20022;-77
2022/02/19 11:14:46;;;;;;;6.90;2.10;;;8.40;99.90;;;;;;5005832;28;20014;-77
2022/02/19 11:17:14;;;;;;;10.00;2.87;;;8.60;99.90;;;;;;5001198;28;20035;-77
2022/02/19 11:19:40;;;;;;;8.93;2.13;;;8.60;99.90;;;;;;5005880;28;20022;-77
2022/02/19 11:22:07;;;;;;;7.47;2.27;;;8.40;99.90;;;;;;5008899;28;20027;-77
2022/02/19 11:24:35;;;;;;;7.47;2.10;;;8.20;99.90;;;;;;5007707;28;20022;-77
2022/02/19 11:27:03;;;;;;;9.77;2.03;;;8.20;99.90;;;;;;5009003;28;20026;-77
2022/02/19 11:29:30;;;;;;;6.00;2.03;;;8.30;99.90;;;;;;4990380;28;20081;-77
2022/02/19 11:31:57;;;;;;;9.23;2.10;;;8.30;99.90;;;;;;5008524;28;20490;-77
2022/02/19 11:34:23;;;;;;;6.80;1.80;;;8.60;99.90;;;;;;5008639;28;20024;-77
2022/02/19 11:36:51;;;;;;;7.57;2.00;;;9.00;99.90;;;;;;5007819;28;20084;-77
2022/02/19 11:39:16;;;;;;;10.60;2.30;;;9.50;99.90;;;;;;5008514;28;20144;-77
2022/02/19 11:41:45;;;;;;;8.63;2.13;;;9.80;99.90;;;;;;5011048;28;20112;-82
2022/02/19 11:44:20;;;;;;;7.97;1.90;;;9.90;99.90;;;;;;5011401;28;20083;-82
2022/02/19 11:46:56;;;;;;;6.60;1.77;;;10.00;99.90;;;;;;5070429;28;20405;-82
2022/02/19 11:49:23;;;;;;;10.20;2.30;;;9.60;99.90;;;;;;5067329;28;20554;-81
2022/02/19 11:52:13;;;;;;;9.77;2.30;;;9.50;99.90;;;;;;5088119;28;20048;-81
2022/02/19 11:54:42;;;;;;;9.33;2.10;;;9.60;99.90;;;;;;5088271;28;20044;-81
2022/02/19 11:57:17;;;;;;;6.40;1.73;;;9.70;99.90;;;;;;5066528;28;20025;-64
2022/02/19 11:59:45;;;;;;;5.50;1.90;;;10.10;99.90;;;;;;5062473;28;20032;-64
2022/02/19 12:02:26;;;;;;;9.20;2.40;;;10.20;99.90;;;;;;5063023;28;20025;-64
2022/02/19 12:05:14;;;;;;;10.93;3.60;;;10.40;99.90;;;;;;5072270;28;20008;-81
2022/02/19 12:07:58;;;;;;;10.20;3.53;;;10.70;99.90;;;;;;5090539;28;20049;-81
2022/02/19 12:10:24;;;;;;;8.77;2.15;;;10.90;99.70;;;;;;5086258;28;20036;-83
2022/02/19 12:13:13;;;;;;;7.55;2.30;;;10.80;98.20;;;;;;5076620;28;20021;-84
2022/02/19 12:15:40;;;;;;;6.85;2.13;;;10.90;99.10;;;;;;5070935;28;20566;-84
2022/02/19 12:18:11;;;;;;;9.07;2.00;;;10.70;96.90;;;;;;5074995;28;20310;-84
2022/02/19 12:20:40;;;;;;;10.13;1.85;;;10.10;97.70;;;;;;5079013;28;20046;-84
2022/02/19 12:23:15;;;;;;;7.93;2.00;;;10.00;97.10;;;;;;5079418;28;20444;-84
2022/02/19 12:25:54;;;;;;;6.47;2.05;;;10.00;97.90;;;;;;5076436;28;20027;-86
2022/02/19 12:28:21;;;;;;;6.30;2.15;;;10.30;97.30;;;;;;5066182;28;20009;-85
2022/02/19 12:31:07;;;;;;;4.63;1.50;;;10.10;96.70;;;;;;5069045;28;20028;-84
2022/02/19 12:33:38;;;;;;;6.93;1.60;;;10.60;94.50;;;;;;5068377;28;20100;-84
2022/02/19 12:36:08;;;;;;;9.10;1.80;;;10.50;94.30;;;;;;5059917;28;20028;-85
2022/02/19 12:38:34;;;;;;;6.00;1.80;;;10.30;94.80;;;;;;5059141;28;20420;-87
2022/02/19 12:41:01;;;;;;;8.48;1.60;;;10.10;94.60;;;;;;5058821;28;20032;-83
2022/02/19 12:43:27;;;;;;;4.85;1.40;;;9.90;95.20;;;;;;5065728;28;20029;-83
2022/02/19 12:45:57;;;;;;;6.50;1.70;;;9.70;94.60;;;;;;5052506;28;20112;-80
2022/02/19 12:48:24;;;;;;;5.90;1.70;;;9.70;94.90;;;;;;5073729;28;20082;-84
2022/02/19 12:51:00;;;;;;;5.07;1.60;;;10.00;93.10;;;;;;5069629;28;20096;-87
2022/02/19 12:53:25;;;;;;;;;;;9.90;92.20;;;;;;5071094;28;20025;-84
2022/02/19 12:55:55;;;;;;;8.60;2.10;;;9.60;93.30;;;;;;5069779;28;19904;-84
2022/02/19 12:58:23;;;;;;;11.60;1.97;;;9.50;94.20;;;;;;5058572;28;20025;-84
2022/02/19 13:00:50;;;;;;;7.17;1.67;;;9.40;95.60;;;;;;5060072;28;20531;-84
2022/02/19 13:03:17;;;;;;;5.80;1.53;;;9.50;94.20;;;;;;5060128;28;20224;-82
2022/02/19 13:05:51;;;;;;;9.57;2.60;;;9.70;93.60;;;;;;5046662;28;20462;-85